createdAt,value
2022-10-07T00:00:58.282Z,70.96
2022-10-07T00:04:00.386Z,71.21
2022-10-07T00:07:02.469Z,70.80
2022-10-07T00:10:05.181Z,70.77
2022-10-07T00:13:08.520Z,70.84
2022-10-07T00:16:13.204Z,70.10
2022-10-07T00:19:15.290Z,70.73
2022-10-07T00:22:17.364Z,71.95
2022-10-07T00:25:20.204Z,71.18
2022-10-07T00:28:24.178Z,70.69
2022-10-07T00:31:29.263Z,70.63
2022-10-07T00:34:31.317Z,70.49
2022-10-07T00:37:33.376Z,71.76
2022-10-07T00:40:35.434Z,71.92
2022-10-07T00:43:37.506Z,73.35
2022-10-07T00:46:39.915Z,74.30
2022-10-07T00:49:52.937Z,73.64
2022-10-07T00:52:57.668Z,73.65
2022-10-07T00:56:02.118Z,73.50
2022-10-07T00:59:05.506Z,74.08
2022-10-07T01:02:08.285Z,73.02
2022-10-07T01:05:12.646Z,73.53
2022-10-07T01:08:15.766Z,73.63
2022-10-07T01:11:28.889Z,73.13
2022-10-07T01:14:49.069Z,73.67
2022-10-07T01:18:01.801Z,73.46
2022-10-07T01:21:33.349Z,74.10
2022-10-07T01:25:22.591Z,73.23
2022-10-07T01:28:37.723Z,72.86
2022-10-07T01:31:48.388Z,73.11
2022-10-07T01:34:51.517Z,73.57
2022-10-07T01:37:56.322Z,72.50
2022-10-07T01:41:04.606Z,72.91
2022-10-07T01:44:07.407Z,72.82
2022-10-07T01:47:09.494Z,72.17
2022-10-07T01:50:13.099Z,72.38
2022-10-07T01:53:25.986Z,72.10
2022-10-07T01:56:46.098Z,73.06
2022-10-07T02:00:05.651Z,73.20
2022-10-07T02:03:25.802Z,72.67
2022-10-07T02:06:40.300Z,72.47
2022-10-07T02:10:16.327Z,73.23
2022-10-07T02:14:00.977Z,72.96
2022-10-07T02:17:19.238Z,72.70
2022-10-07T02:20:25.241Z,73.98
2022-10-07T02:23:28.907Z,73.56
2022-10-07T02:26:32.440Z,73.70
2022-10-07T02:29:36.042Z,73.45
2022-10-07T02:32:41.718Z,74.11
2022-10-07T02:36:20.119Z,74.16
2022-10-07T02:39:22.334Z,74.58
2022-10-07T02:42:39.946Z,74.60
2022-10-07T02:46:17.088Z,74.88
2022-10-07T02:49:20.743Z,75.23
2022-10-07T02:52:22.851Z,75.49
2022-10-07T02:55:26.408Z,77.48
2022-10-07T02:58:28.542Z,76.49
2022-10-07T03:01:34.094Z,75.80
2022-10-07T03:04:36.191Z,75.63
2022-10-07T03:07:38.350Z,75.68
2022-10-07T03:10:41.350Z,75.76
2022-10-07T03:13:45.697Z,75.29
2022-10-07T03:16:47.924Z,76.84
2022-10-07T03:19:50.015Z,76.94
2022-10-07T03:22:52.130Z,77.70
2022-10-07T03:25:56.194Z,78.20
2022-10-07T03:29:00.289Z,78.13
2022-10-07T03:32:03.618Z,78.12
2022-10-07T03:35:06.450Z,79.72
2022-10-07T03:38:08.707Z,80.35
2022-10-07T03:41:11.159Z,79.50
2022-10-07T03:44:14.550Z,78.45
2022-10-07T03:47:17.545Z,77.38
2022-10-07T03:50:19.675Z,77.28
2022-10-07T03:53:21.798Z,77.57
2022-10-07T03:56:24.217Z,77.33
2022-10-07T03:59:26.372Z,77.78
2022-10-07T04:02:29.211Z,76.49
2022-10-07T04:05:31.785Z,76.78
2022-10-07T04:08:35.164Z,77.84
2022-10-07T04:11:40.579Z,76.86
2022-10-07T04:14:43.547Z,76.06
2022-10-07T04:17:47.102Z,75.47
2022-10-07T04:20:51.166Z,75.16
2022-10-07T04:23:53.303Z,74.89
2022-10-07T04:26:55.591Z,75.48
2022-10-07T04:29:57.771Z,75.46
2022-10-07T04:33:01.039Z,75.75
2022-10-07T04:36:08.847Z,77.34
2022-10-07T04:39:17.361Z,79.08
2022-10-07T04:42:48.086Z,80.17
2022-10-07T04:45:55.398Z,80.89
2022-10-07T04:48:58.854Z,80.91
2022-10-07T04:52:02.870Z,81.06
2022-10-07T04:55:12.414Z,80.45
2022-10-07T04:58:15.547Z,79.55
2022-10-07T05:01:17.799Z,79.58
2022-10-07T05:04:22.641Z,79.14
2022-10-07T05:07:26.591Z,77.93
2022-10-07T05:10:29.099Z,78.49
2022-10-07T05:13:31.433Z,78.37
2022-10-07T05:16:34.074Z,79.21
2022-10-07T05:19:38.235Z,80.08
2022-10-07T05:22:40.354Z,79.95
2022-10-07T05:25:44.020Z,80.00
2022-10-07T05:28:48.721Z,79.74
2022-10-07T05:31:54.931Z,79.13
2022-10-07T05:35:00.112Z,78.31
2022-10-07T05:38:02.418Z,77.71
2022-10-07T05:41:07.601Z,76.83
2022-10-07T05:44:12.814Z,76.76
2022-10-07T05:47:15.886Z,76.93
2022-10-07T05:50:18.220Z,76.80
2022-10-07T05:53:20.355Z,75.86
2022-10-07T05:56:22.648Z,75.21
2022-10-07T05:59:26.633Z,76.50
2022-10-07T06:02:29.508Z,76.22
2022-10-07T06:05:32.298Z,75.66
2022-10-07T06:08:35.311Z,76.59
2022-10-07T06:11:56.136Z,76.50
2022-10-07T06:14:59.424Z,75.96
2022-10-07T06:18:02.008Z,77.34
2022-10-07T06:21:04.499Z,77.13
2022-10-07T06:24:07.409Z,77.47
2022-10-07T06:27:10.349Z,77.38
2022-10-07T06:30:13.223Z,76.42
2022-10-07T06:33:16.159Z,76.70
2022-10-07T06:36:18.571Z,76.93
2022-10-07T06:39:22.306Z,77.21
2022-10-07T06:42:25.928Z,77.02
2022-10-07T06:45:34.037Z,76.53
2022-10-07T06:48:37.339Z,77.19
2022-10-07T06:51:40.006Z,76.56
2022-10-07T06:54:42.330Z,77.29
2022-10-07T06:57:56.201Z,76.38
2022-10-07T07:01:02.367Z,76.98
2022-10-07T07:04:05.034Z,76.15
2022-10-07T07:07:07.191Z,76.27
2022-10-07T07:10:09.611Z,76.29
2022-10-07T07:13:15.996Z,75.10
2022-10-07T07:16:18.300Z,76.91
2022-10-07T07:19:20.609Z,76.84
2022-10-07T07:22:22.719Z,76.64
2022-10-07T07:25:25.553Z,76.49
2022-10-07T07:28:27.697Z,77.93
2022-10-07T07:31:32.735Z,77.57
2022-10-07T07:34:36.389Z,78.78
2022-10-07T07:37:39.078Z,78.25
2022-10-07T07:40:41.272Z,79.77
2022-10-07T07:43:47.196Z,79.65
2022-10-07T07:46:52.120Z,79.71
2022-10-07T07:49:55.820Z,79.42
2022-10-07T07:53:05.739Z,79.55
2022-10-07T07:56:08.155Z,78.93
2022-10-07T07:59:11.197Z,77.04
2022-10-07T08:02:14.381Z,76.10
2022-10-07T08:05:23.669Z,75.76
2022-10-07T08:08:29.726Z,78.83
2022-10-07T08:11:35.043Z,78.96
2022-10-07T08:14:39.008Z,76.91
2022-10-07T08:17:41.868Z,76.51
2022-10-07T08:20:44.607Z,75.70
2022-10-07T08:23:49.974Z,74.55
2022-10-07T08:26:55.986Z,75.51
2022-10-07T08:29:58.542Z,76.87
2022-10-07T08:33:01.620Z,79.85
2022-10-07T08:36:04.883Z,79.50
2022-10-07T08:39:07.326Z,81.37
2022-10-07T08:42:15.256Z,82.23
2022-10-07T08:45:31.888Z,83.41
2022-10-07T08:48:35.054Z,84.27
2022-10-07T08:51:45.203Z,84.56
2022-10-07T08:54:47.269Z,85.79
2022-10-07T08:58:05.544Z,88.06
2022-10-07T09:01:19.423Z,87.25
2022-10-07T09:04:58.899Z,85.52
2022-10-07T09:08:11.036Z,84.94
2022-10-07T09:11:18.188Z,83.95
2022-10-07T09:14:40.430Z,84.15
2022-10-07T09:17:57.591Z,83.31
2022-10-07T09:20:59.672Z,82.88
2022-10-07T09:24:24.560Z,81.92
2022-10-07T09:27:26.781Z,81.50
2022-10-07T09:30:29.593Z,80.12
2022-10-07T09:33:31.759Z,78.83
2022-10-07T09:36:34.135Z,78.07
2022-10-07T09:39:36.304Z,76.67
2022-10-07T09:42:44.163Z,76.47
2022-10-07T09:45:47.174Z,76.38
2022-10-07T09:48:55.751Z,77.02
2022-10-07T09:52:05.736Z,76.74
2022-10-07T09:55:37.216Z,75.22
2022-10-07T09:58:39.255Z,75.92
2022-10-07T10:01:41.938Z,77.14
2022-10-07T10:04:57.250Z,74.90
2022-10-07T10:08:27.453Z,75.92
2022-10-07T10:11:29.532Z,74.18
2022-10-07T10:14:52.149Z,73.00
2022-10-07T10:17:57.096Z,71.09
2022-10-07T10:21:11.215Z,71.58
2022-10-07T10:24:15.410Z,70.58
2022-10-07T10:27:20.086Z,71.78
2022-10-07T10:30:22.614Z,71.24
2022-10-07T10:33:41.070Z,69.28
2022-10-07T10:36:45.595Z,69.91
2022-10-07T10:39:59.488Z,70.03
2022-10-07T10:43:27.513Z,71.73
2022-10-07T10:46:52.041Z,68.84
2022-10-07T10:50:02.079Z,66.70
2022-10-07T10:53:25.954Z,68.95
2022-10-07T10:57:00.578Z,70.65
2022-10-07T11:00:13.195Z,70.68
2022-10-07T11:03:24.523Z,70.80
2022-10-07T11:06:28.552Z,71.23
2022-10-07T11:09:43.053Z,72.25
2022-10-07T11:12:48.778Z,71.96
2022-10-07T11:15:57.104Z,72.17
2022-10-07T11:19:19.247Z,71.12
2022-10-07T11:22:32.900Z,70.64
2022-10-07T11:25:38.799Z,69.45
2022-10-07T11:28:42.064Z,70.40
2022-10-07T11:31:53.015Z,71.22
2022-10-07T11:35:22.293Z,71.08
2022-10-07T11:38:29.566Z,72.47
2022-10-07T11:41:41.318Z,71.83
2022-10-07T11:44:54.573Z,72.29
2022-10-07T11:48:02.255Z,72.58
2022-10-07T11:51:05.943Z,72.07
2022-10-07T11:54:12.512Z,73.77
2022-10-07T11:57:43.634Z,73.38
2022-10-07T12:00:45.775Z,72.42
2022-10-07T12:03:47.964Z,72.79
2022-10-07T12:07:30.641Z,72.17
2022-10-07T12:10:33.673Z,72.83
2022-10-07T12:13:38.715Z,71.34
2022-10-07T12:16:42.911Z,73.03
2022-10-07T12:19:45.401Z,71.72
2022-10-07T12:22:47.804Z,71.83
2022-10-07T12:25:59.898Z,72.56
2022-10-07T12:29:02.110Z,72.02
2022-10-07T12:32:04.858Z,64.92
2022-10-07T12:35:35.073Z,58.61
2022-10-07T12:38:37.770Z,56.19
2022-10-07T12:41:40.863Z,58.90
2022-10-07T12:44:51.302Z,55.83
2022-10-07T12:47:55.803Z,53.92
2022-10-07T12:50:57.868Z,53.66
2022-10-07T12:54:00.032Z,54.38
2022-10-07T12:57:02.334Z,52.61
2022-10-07T13:00:25.991Z,51.59
2022-10-07T13:03:54.174Z,51.45
2022-10-07T13:07:14.408Z,50.07
2022-10-07T13:10:28.600Z,50.60
2022-10-07T13:14:07.086Z,51.12
2022-10-07T13:17:43.698Z,48.67
2022-10-07T13:20:57.564Z,51.37
2022-10-07T13:23:59.616Z,49.66
2022-10-07T13:27:01.710Z,47.97
2022-10-07T13:30:05.023Z,47.29
2022-10-07T13:33:22.967Z,46.32
2022-10-07T13:36:27.631Z,43.66
2022-10-07T13:39:30.717Z,46.14
2022-10-07T13:42:33.230Z,42.91
2022-10-07T13:45:45.739Z,42.31
2022-10-07T13:48:48.951Z,43.31
2022-10-07T13:51:55.524Z,42.58
2022-10-07T13:54:58.370Z,40.93
2022-10-07T13:58:02.963Z,42.54
2022-10-07T14:01:05.820Z,41.67
2022-10-07T14:04:11.491Z,41.08
2022-10-07T14:07:13.410Z,46.35
2022-10-07T14:10:15.557Z,45.98
2022-10-07T14:13:17.590Z,48.59
2022-10-07T14:16:22.205Z,48.43
2022-10-07T14:19:24.498Z,50.13
2022-10-07T14:22:53.703Z,41.39
2022-10-07T14:26:06.886Z,50.52
2022-10-07T14:29:27.558Z,45.49
2022-10-07T14:32:48.841Z,41.19
2022-10-07T14:36:11.715Z,39.93
2022-10-07T14:39:28.807Z,40.55
2022-10-07T14:42:33.394Z,48.14
2022-10-07T14:45:35.610Z,41.08
2022-10-07T14:48:38.521Z,43.88
2022-10-07T14:51:40.575Z,41.32
2022-10-07T14:54:42.654Z,38.67
2022-10-07T14:57:46.584Z,39.00
2022-10-07T15:00:48.650Z,38.25
2022-10-07T15:03:51.321Z,38.19
2022-10-07T15:06:54.180Z,39.90
2022-10-07T15:09:56.255Z,37.33
2022-10-07T15:12:59.481Z,37.37
2022-10-07T15:16:01.536Z,38.81
2022-10-07T15:19:04.262Z,38.55
2022-10-07T15:22:06.410Z,40.16
2022-10-07T15:25:10.170Z,42.27
2022-10-07T15:28:12.234Z,40.58
2022-10-07T15:31:14.462Z,40.64
2022-10-07T15:34:16.708Z,39.13
2022-10-07T15:37:19.404Z,40.78
2022-10-07T15:40:21.473Z,41.29
2022-10-07T15:43:23.815Z,42.87
2022-10-07T15:46:27.801Z,42.62
2022-10-07T15:49:30.259Z,41.75
2022-10-07T15:52:32.330Z,42.33
2022-10-07T15:55:34.447Z,43.81
2022-10-07T15:58:36.518Z,43.95
2022-10-07T16:01:38.741Z,43.79
2022-10-07T16:04:42.897Z,45.72
2022-10-07T16:07:45.203Z,44.50
2022-10-07T16:10:47.246Z,44.00
2022-10-07T16:13:49.421Z,43.66
2022-10-07T16:16:51.476Z,41.64
2022-10-07T16:19:53.516Z,42.45
2022-10-07T16:22:55.623Z,43.41
2022-10-07T16:26:06.266Z,44.17
2022-10-07T16:29:32.406Z,45.53
2022-10-07T16:32:34.474Z,46.66
2022-10-07T16:35:36.563Z,46.99
2022-10-07T16:38:38.659Z,48.21
2022-10-07T16:41:44.165Z,48.36
2022-10-07T16:44:50.629Z,49.80
2022-10-07T16:47:53.067Z,48.91
2022-10-07T16:50:55.636Z,49.89
2022-10-07T16:54:01.765Z,50.98
2022-10-07T16:57:03.938Z,51.33
2022-10-07T17:00:07.095Z,53.02
2022-10-07T17:03:09.642Z,56.27
2022-10-07T17:06:13.791Z,57.31
2022-10-07T17:09:17.448Z,58.04
2022-10-07T17:12:19.516Z,57.80
2022-10-07T17:15:21.675Z,57.96
2022-10-07T17:18:26.095Z,59.20
2022-10-07T17:21:28.993Z,59.49
2022-10-07T17:24:31.160Z,59.74
2022-10-07T17:27:33.806Z,60.55
2022-10-07T17:30:36.270Z,60.20
2022-10-07T17:33:43.368Z,59.76
2022-10-07T17:36:45.877Z,58.83
2022-10-07T17:39:48.333Z,58.89
2022-10-07T17:42:51.250Z,59.44
2022-10-07T17:45:54.355Z,60.42
2022-10-07T17:48:59.737Z,61.41
2022-10-07T17:52:03.876Z,61.17
2022-10-07T17:55:07.118Z,60.98
2022-10-07T17:58:09.270Z,60.48
2022-10-07T18:01:22.484Z,61.20
2022-10-07T18:04:25.377Z,61.18
2022-10-07T18:07:27.510Z,62.59
2022-10-07T18:10:29.655Z,64.37
2022-10-07T18:13:51.211Z,66.02
2022-10-07T18:16:53.576Z,67.92
2022-10-07T18:19:55.672Z,70.20
2022-10-07T18:22:58.885Z,71.07
2022-10-07T18:26:10.888Z,73.04
2022-10-07T18:29:12.957Z,73.60
2022-10-07T18:32:15.047Z,75.76
2022-10-07T18:35:18.577Z,75.38
2022-10-07T18:38:20.666Z,75.12
2022-10-07T18:41:22.958Z,74.43
2022-10-07T18:44:25.615Z,74.17
2022-10-07T18:47:27.657Z,73.42
2022-10-07T18:50:33.476Z,72.88
2022-10-07T18:53:37.751Z,72.11
2022-10-07T18:56:41.276Z,72.63
2022-10-07T18:59:43.819Z,71.58
2022-10-07T19:02:50.792Z,73.04
2022-10-07T19:05:52.901Z,72.67
2022-10-07T19:09:01.314Z,72.34
2022-10-07T19:12:03.525Z,72.80
2022-10-07T19:15:07.187Z,73.76
2022-10-07T19:18:10.061Z,74.29
2022-10-07T19:21:12.634Z,73.86
2022-10-07T19:24:15.426Z,72.89
2022-10-07T19:27:17.488Z,73.00
2022-10-07T19:30:19.593Z,73.21
2022-10-07T19:33:22.110Z,73.13
2022-10-07T19:36:24.314Z,73.57
2022-10-07T19:39:27.035Z,73.87
2022-10-07T19:42:29.776Z,73.94
2022-10-07T19:45:34.484Z,74.91
2022-10-07T19:48:36.907Z,73.22
2022-10-07T19:51:40.378Z,74.77
2022-10-07T19:54:45.775Z,72.89
2022-10-07T19:57:48.400Z,72.12
2022-10-07T20:00:50.861Z,71.63
2022-10-07T20:04:18.839Z,71.06
2022-10-07T20:07:20.946Z,72.19
2022-10-07T20:10:24.141Z,70.83
2022-10-07T20:13:26.708Z,70.71
2022-10-07T20:16:29.482Z,70.63
2022-10-07T20:19:31.571Z,71.72
2022-10-07T20:22:34.440Z,70.80
2022-10-07T20:25:39.657Z,71.05
2022-10-07T20:28:41.940Z,70.38
2022-10-07T20:31:44.402Z,70.52
2022-10-07T20:34:50.078Z,72.21
2022-10-07T20:37:52.187Z,71.49
2022-10-07T20:41:12.971Z,71.71
2022-10-07T20:44:16.043Z,72.02
2022-10-07T20:47:18.658Z,73.14
2022-10-07T20:50:21.430Z,72.92
2022-10-07T20:53:23.694Z,73.88
2022-10-07T20:56:25.802Z,74.24
2022-10-07T20:59:29.355Z,75.19
2022-10-07T21:02:31.426Z,74.05
2022-10-07T21:05:33.579Z,74.69
2022-10-07T21:08:35.626Z,75.28
2022-10-07T21:11:37.918Z,75.09
2022-10-07T21:14:40.246Z,75.18
2022-10-07T21:17:44.493Z,74.77
2022-10-07T21:20:56.799Z,75.45
2022-10-07T21:23:59.159Z,75.06
2022-10-07T21:27:06.589Z,75.08
2022-10-07T21:30:10.894Z,75.72
2022-10-07T21:33:13.234Z,74.83
2022-10-07T21:36:18.287Z,74.93
2022-10-07T21:39:20.514Z,75.56
2022-10-07T21:42:22.626Z,75.30
2022-10-07T21:45:24.693Z,75.75
2022-10-07T21:48:30.118Z,75.38
2022-10-07T21:51:34.368Z,75.41
2022-10-07T21:54:37.484Z,75.23
2022-10-07T21:57:41.921Z,75.39
2022-10-07T22:00:44.163Z,75.59
2022-10-07T22:03:46.391Z,75.96
2022-10-07T22:07:09.213Z,75.99
2022-10-07T22:10:12.226Z,75.56
2022-10-07T22:13:14.454Z,75.87
2022-10-07T22:16:17.429Z,76.58
2022-10-07T22:19:19.559Z,76.38
2022-10-07T22:22:21.587Z,76.24
2022-10-07T22:25:27.173Z,76.05
2022-10-07T22:28:29.400Z,76.67
2022-10-07T22:31:32.062Z,76.40
2022-10-07T22:34:52.742Z,76.36
2022-10-07T22:37:55.539Z,76.23
2022-10-07T22:40:57.673Z,76.54
2022-10-07T22:44:00.196Z,76.71
2022-10-07T22:47:05.306Z,76.55
2022-10-07T22:50:08.276Z,77.10
2022-10-07T22:53:10.324Z,76.77
2022-10-07T22:56:15.845Z,77.30
2022-10-07T22:59:18.008Z,77.23
2022-10-07T23:02:20.325Z,77.03
2022-10-07T23:05:22.508Z,75.65
2022-10-07T23:08:25.050Z,75.60
2022-10-07T23:11:28.002Z,76.69
2022-10-07T23:14:30.162Z,76.21
2022-10-07T23:17:32.319Z,77.07
2022-10-07T23:20:34.387Z,77.29
2022-10-07T23:23:37.794Z,76.89
2022-10-07T23:26:39.942Z,77.52
2022-10-07T23:29:42.028Z,77.72
2022-10-07T23:32:46.180Z,78.36
2022-10-07T23:35:48.346Z,77.80
2022-10-07T23:38:50.926Z,78.18
2022-10-07T23:41:53.189Z,78.00
2022-10-07T23:44:55.310Z,77.96
2022-10-07T23:47:57.393Z,78.63
2022-10-07T23:50:59.475Z,78.22
2022-10-07T23:54:02.673Z,78.09
2022-10-07T23:57:04.786Z,78.21
